sensor_id;sensor_type;location;lat;lon;timestamp;P1;durP1;ratioP1;P2;durP2;ratioP2
12181;SDS011;6154;51.550;12.138;2022-08-19T00:00:02;13.98;;;9.15;;
12181;SDS011;6154;51.550;12.138;2022-08-19T00:02:32;13.88;;;9.98;;
12181;SDS011;6154;51.550;12.138;2022-08-19T00:05:00;12.57;;;8.85;;
12181;SDS011;6154;51.550;12.138;2022-08-19T00:07:28;14.70;;;9.73;;
12181;SDS011;6154;51.550;12.138;2022-08-19T00:09:57;12.23;;;9.25;;
12181;SDS011;6154;51.550;12.138;2022-08-19T00:12:25;15.18;;;9.45;;
12181;SDS011;6154;51.550;12.138;2022-08-19T00:14:54;14.87;;;10.10;;
12181;SDS011;6154;51.550;12.138;2022-08-19T00:17:22;12.45;;;9.18;;
12181;SDS011;6154;51.550;12.138;2022-08-19T00:19:50;13.45;;;9.35;;
12181;SDS011;6154;51.550;12.138;2022-08-19T00:22:18;14.77;;;10.60;;
12181;SDS011;6154;51.550;12.138;2022-08-19T00:24:46;15.82;;;9.75;;
12181;SDS011;6154;51.550;12.138;2022-08-19T00:27:16;14.15;;;10.05;;
12181;SDS011;6154;51.550;12.138;2022-08-19T00:29:52;14.30;;;10.13;;
12181;SDS011;6154;51.550;12.138;2022-08-19T00:32:22;15.57;;;10.32;;
12181;SDS011;6154;51.550;12.138;2022-08-19T00:34:52;16.05;;;10.20;;
12181;SDS011;6154;51.550;12.138;2022-08-19T00:37:21;14.25;;;10.30;;
12181;SDS011;6154;51.550;12.138;2022-08-19T00:39:50;14.00;;;9.88;;
12181;SDS011;6154;51.550;12.138;2022-08-19T00:42:19;16.73;;;9.98;;
12181;SDS011;6154;51.550;12.138;2022-08-19T00:44:48;18.73;;;10.13;;
12181;SDS011;6154;51.550;12.138;2022-08-19T00:47:19;17.52;;;10.27;;
12181;SDS011;6154;51.550;12.138;2022-08-19T00:49:49;14.57;;;9.90;;
12181;SDS011;6154;51.550;12.138;2022-08-19T00:52:23;19.17;;;10.95;;
12181;SDS011;6154;51.550;12.138;2022-08-19T00:54:54;14.15;;;10.52;;
12181;SDS011;6154;51.550;12.138;2022-08-19T00:57:24;15.13;;;10.63;;
12181;SDS011;6154;51.550;12.138;2022-08-19T00:59:56;16.37;;;10.13;;
12181;SDS011;6154;51.550;12.138;2022-08-19T01:02:31;14.65;;;9.82;;
12181;SDS011;6154;51.550;12.138;2022-08-19T01:05:00;13.02;;;9.77;;
12181;SDS011;6154;51.550;12.138;2022-08-19T01:07:32;19.73;;;11.57;;
12181;SDS011;6154;51.550;12.138;2022-08-19T01:10:04;17.12;;;10.40;;
12181;SDS011;6154;51.550;12.138;2022-08-19T01:12:35;15.55;;;11.00;;
12181;SDS011;6154;51.550;12.138;2022-08-19T01:15:04;15.57;;;10.85;;
12181;SDS011;6154;51.550;12.138;2022-08-19T01:17:37;15.27;;;10.57;;
12181;SDS011;6154;51.550;12.138;2022-08-19T01:20:10;14.87;;;10.82;;
12181;SDS011;6154;51.550;12.138;2022-08-19T01:22:43;17.83;;;10.90;;
12181;SDS011;6154;51.550;12.138;2022-08-19T01:25:14;16.85;;;10.98;;
12181;SDS011;6154;51.550;12.138;2022-08-19T01:27:46;15.82;;;10.93;;
12181;SDS011;6154;51.550;12.138;2022-08-19T01:30:20;16.62;;;11.25;;
12181;SDS011;6154;51.550;12.138;2022-08-19T01:32:50;14.10;;;10.75;;
12181;SDS011;6154;51.550;12.138;2022-08-19T01:35:20;21.87;;;11.48;;
12181;SDS011;6154;51.550;12.138;2022-08-19T01:37:52;16.23;;;11.02;;
12181;SDS011;6154;51.550;12.138;2022-08-19T01:40:25;19.85;;;11.45;;
12181;SDS011;6154;51.550;12.138;2022-08-19T01:42:55;17.73;;;10.90;;
12181;SDS011;6154;51.550;12.138;2022-08-19T01:45:24;17.73;;;11.05;;
12181;SDS011;6154;51.550;12.138;2022-08-19T01:47:54;15.85;;;11.80;;
12181;SDS011;6154;51.550;12.138;2022-08-19T01:50:28;18.12;;;12.02;;
12181;SDS011;6154;51.550;12.138;2022-08-19T01:52:59;16.62;;;12.02;;
12181;SDS011;6154;51.550;12.138;2022-08-19T01:55:34;16.75;;;11.32;;
12181;SDS011;6154;51.550;12.138;2022-08-19T01:58:08;14.90;;;11.05;;
12181;SDS011;6154;51.550;12.138;2022-08-19T02:00:39;17.10;;;11.50;;
12181;SDS011;6154;51.550;12.138;2022-08-19T02:03:07;18.27;;;11.80;;
12181;SDS011;6154;51.550;12.138;2022-08-19T02:05:38;17.45;;;12.30;;
12181;SDS011;6154;51.550;12.138;2022-08-19T02:08:08;18.90;;;11.23;;
12181;SDS011;6154;51.550;12.138;2022-08-19T02:10:38;20.27;;;12.40;;
12181;SDS011;6154;51.550;12.138;2022-08-19T02:13:08;16.30;;;10.55;;
12181;SDS011;6154;51.550;12.138;2022-08-19T02:15:36;20.83;;;12.23;;
12181;SDS011;6154;51.550;12.138;2022-08-19T02:18:05;17.27;;;12.48;;
12181;SDS011;6154;51.550;12.138;2022-08-19T02:20:35;17.77;;;11.80;;
12181;SDS011;6154;51.550;12.138;2022-08-19T02:23:04;18.75;;;12.82;;
12181;SDS011;6154;51.550;12.138;2022-08-19T02:25:43;20.67;;;12.50;;
12181;SDS011;6154;51.550;12.138;2022-08-19T02:28:13;17.58;;;12.45;;
12181;SDS011;6154;51.550;12.138;2022-08-19T02:30:44;19.52;;;12.45;;
12181;SDS011;6154;51.550;12.138;2022-08-19T02:33:13;20.23;;;13.38;;
12181;SDS011;6154;51.550;12.138;2022-08-19T02:35:41;18.20;;;12.43;;
12181;SDS011;6154;51.550;12.138;2022-08-19T02:38:10;20.83;;;13.55;;
12181;SDS011;6154;51.550;12.138;2022-08-19T02:40:55;20.25;;;13.45;;
12181;SDS011;6154;51.550;12.138;2022-08-19T02:43:25;17.27;;;12.65;;
12181;SDS011;6154;51.550;12.138;2022-08-19T02:45:59;21.17;;;12.77;;
12181;SDS011;6154;51.550;12.138;2022-08-19T02:48:27;18.50;;;12.75;;
12181;SDS011;6154;51.550;12.138;2022-08-19T02:50:55;20.52;;;13.88;;
12181;SDS011;6154;51.550;12.138;2022-08-19T02:53:24;20.10;;;12.57;;
12181;SDS011;6154;51.550;12.138;2022-08-19T02:55:56;17.87;;;12.65;;
12181;SDS011;6154;51.550;12.138;2022-08-19T02:58:24;19.87;;;13.13;;
12181;SDS011;6154;51.550;12.138;2022-08-19T03:00:53;18.25;;;12.25;;
12181;SDS011;6154;51.550;12.138;2022-08-19T03:03:23;17.98;;;13.18;;
12181;SDS011;6154;51.550;12.138;2022-08-19T03:05:51;19.75;;;12.57;;
12181;SDS011;6154;51.550;12.138;2022-08-19T03:08:30;20.77;;;13.25;;
12181;SDS011;6154;51.550;12.138;2022-08-19T03:10:59;19.65;;;12.63;;
12181;SDS011;6154;51.550;12.138;2022-08-19T03:13:27;18.98;;;12.32;;
12181;SDS011;6154;51.550;12.138;2022-08-19T03:15:55;18.58;;;12.75;;
12181;SDS011;6154;51.550;12.138;2022-08-19T03:18:23;17.70;;;12.80;;
12181;SDS011;6154;51.550;12.138;2022-08-19T03:20:53;19.00;;;13.02;;
12181;SDS011;6154;51.550;12.138;2022-08-19T03:23:21;18.25;;;12.65;;
12181;SDS011;6154;51.550;12.138;2022-08-19T03:25:52;20.50;;;12.68;;
12181;SDS011;6154;51.550;12.138;2022-08-19T03:28:42;17.80;;;12.65;;
12181;SDS011;6154;51.550;12.138;2022-08-19T03:31:18;17.52;;;12.32;;
12181;SDS011;6154;51.550;12.138;2022-08-19T03:34:08;16.95;;;12.18;;
12181;SDS011;6154;51.550;12.138;2022-08-19T03:36:39;18.05;;;12.07;;
12181;SDS011;6154;51.550;12.138;2022-08-19T03:39:07;18.10;;;11.95;;
12181;SDS011;6154;51.550;12.138;2022-08-19T03:41:38;19.42;;;13.07;;
12181;SDS011;6154;51.550;12.138;2022-08-19T03:44:13;17.27;;;12.80;;
12181;SDS011;6154;51.550;12.138;2022-08-19T03:46:45;20.15;;;13.10;;
12181;SDS011;6154;51.550;12.138;2022-08-19T03:49:14;15.82;;;11.75;;
12181;SDS011;6154;51.550;12.138;2022-08-19T03:51:45;17.77;;;12.57;;
12181;SDS011;6154;51.550;12.138;2022-08-19T03:54:17;20.75;;;13.50;;
12181;SDS011;6154;51.550;12.138;2022-08-19T03:56:48;21.62;;;12.48;;
12181;SDS011;6154;51.550;12.138;2022-08-19T03:59:19;19.17;;;12.43;;
12181;SDS011;6154;51.550;12.138;2022-08-19T04:01:52;18.60;;;12.55;;
12181;SDS011;6154;51.550;12.138;2022-08-19T04:04:21;22.37;;;12.50;;
12181;SDS011;6154;51.550;12.138;2022-08-19T04:06:50;20.50;;;12.82;;
12181;SDS011;6154;51.550;12.138;2022-08-19T04:09:18;17.95;;;13.02;;
12181;SDS011;6154;51.550;12.138;2022-08-19T04:11:49;20.10;;;13.27;;
12181;SDS011;6154;51.550;12.138;2022-08-19T04:14:23;23.98;;;14.68;;
12181;SDS011;6154;51.550;12.138;2022-08-19T04:16:52;22.92;;;14.43;;
12181;SDS011;6154;51.550;12.138;2022-08-19T04:19:20;20.35;;;14.00;;
12181;SDS011;6154;51.550;12.138;2022-08-19T04:21:50;22.67;;;14.60;;
12181;SDS011;6154;51.550;12.138;2022-08-19T04:24:20;27.33;;;16.02;;
12181;SDS011;6154;51.550;12.138;2022-08-19T04:26:48;20.80;;;14.55;;
12181;SDS011;6154;51.550;12.138;2022-08-19T04:29:18;24.95;;;16.00;;
12181;SDS011;6154;51.550;12.138;2022-08-19T04:31:50;20.65;;;14.52;;
12181;SDS011;6154;51.550;12.138;2022-08-19T04:34:20;24.48;;;14.07;;
12181;SDS011;6154;51.550;12.138;2022-08-19T04:36:50;19.05;;;14.07;;
12181;SDS011;6154;51.550;12.138;2022-08-19T04:39:22;22.48;;;15.07;;
12181;SDS011;6154;51.550;12.138;2022-08-19T04:42:11;25.20;;;15.57;;
12181;SDS011;6154;51.550;12.138;2022-08-19T04:44:58;21.10;;;15.00;;
12181;SDS011;6154;51.550;12.138;2022-08-19T04:47:28;20.25;;;14.98;;
12181;SDS011;6154;51.550;12.138;2022-08-19T04:50:17;23.95;;;14.90;;
12181;SDS011;6154;51.550;12.138;2022-08-19T04:52:46;22.58;;;15.43;;
12181;SDS011;6154;51.550;12.138;2022-08-19T04:55:14;22.05;;;14.70;;
12181;SDS011;6154;51.550;12.138;2022-08-19T04:57:41;22.62;;;14.40;;
12181;SDS011;6154;51.550;12.138;2022-08-19T05:00:10;22.00;;;15.13;;
12181;SDS011;6154;51.550;12.138;2022-08-19T05:02:40;20.67;;;13.55;;
12181;SDS011;6154;51.550;12.138;2022-08-19T05:05:08;19.70;;;13.70;;
12181;SDS011;6154;51.550;12.138;2022-08-19T05:07:37;21.80;;;15.40;;
12181;SDS011;6154;51.550;12.138;2022-08-19T05:10:07;21.80;;;15.75;;
12181;SDS011;6154;51.550;12.138;2022-08-19T05:12:35;23.85;;;15.05;;
12181;SDS011;6154;51.550;12.138;2022-08-19T05:15:04;21.58;;;14.30;;
12181;SDS011;6154;51.550;12.138;2022-08-19T05:17:34;21.67;;;15.70;;
12181;SDS011;6154;51.550;12.138;2022-08-19T05:20:07;22.80;;;15.38;;
12181;SDS011;6154;51.550;12.138;2022-08-19T05:22:54;23.95;;;15.80;;
12181;SDS011;6154;51.550;12.138;2022-08-19T05:25:22;23.02;;;14.70;;
12181;SDS011;6154;51.550;12.138;2022-08-19T05:27:52;22.55;;;14.57;;
12181;SDS011;6154;51.550;12.138;2022-08-19T05:30:20;22.85;;;15.60;;
12181;SDS011;6154;51.550;12.138;2022-08-19T05:33:08;22.98;;;14.77;;
12181;SDS011;6154;51.550;12.138;2022-08-19T05:35:39;25.95;;;16.27;;
12181;SDS011;6154;51.550;12.138;2022-08-19T05:38:08;23.67;;;15.45;;
12181;SDS011;6154;51.550;12.138;2022-08-19T05:40:38;23.55;;;15.30;;
12181;SDS011;6154;51.550;12.138;2022-08-19T05:43:07;22.20;;;15.65;;
12181;SDS011;6154;51.550;12.138;2022-08-19T05:45:38;23.75;;;15.27;;
12181;SDS011;6154;51.550;12.138;2022-08-19T05:48:08;22.67;;;15.88;;
12181;SDS011;6154;51.550;12.138;2022-08-19T05:50:38;24.58;;;15.57;;
12181;SDS011;6154;51.550;12.138;2022-08-19T05:53:09;23.15;;;15.88;;
12181;SDS011;6154;51.550;12.138;2022-08-19T05:55:37;20.60;;;14.50;;
12181;SDS011;6154;51.550;12.138;2022-08-19T05:58:06;23.87;;;16.30;;
12181;SDS011;6154;51.550;12.138;2022-08-19T06:00:34;24.95;;;15.88;;
12181;SDS011;6154;51.550;12.138;2022-08-19T06:03:02;30.00;;;16.50;;
12181;SDS011;6154;51.550;12.138;2022-08-19T06:05:39;21.48;;;14.70;;
12181;SDS011;6154;51.550;12.138;2022-08-19T06:08:18;22.67;;;14.98;;
12181;SDS011;6154;51.550;12.138;2022-08-19T06:11:16;24.08;;;15.63;;
12181;SDS011;6154;51.550;12.138;2022-08-19T06:13:48;27.30;;;15.35;;
12181;SDS011;6154;51.550;12.138;2022-08-19T06:16:26;24.63;;;13.48;;
12181;SDS011;6154;51.550;12.138;2022-08-19T06:18:55;23.87;;;14.35;;
12181;SDS011;6154;51.550;12.138;2022-08-19T06:21:26;21.77;;;14.60;;
12181;SDS011;6154;51.550;12.138;2022-08-19T06:23:56;27.35;;;15.00;;
12181;SDS011;6154;51.550;12.138;2022-08-19T06:26:25;21.62;;;13.57;;
12181;SDS011;6154;51.550;12.138;2022-08-19T06:28:54;24.17;;;15.15;;
12181;SDS011;6154;51.550;12.138;2022-08-19T06:31:23;25.15;;;15.27;;
12181;SDS011;6154;51.550;12.138;2022-08-19T06:33:52;22.87;;;14.10;;
12181;SDS011;6154;51.550;12.138;2022-08-19T06:36:22;21.33;;;12.85;;
12181;SDS011;6154;51.550;12.138;2022-08-19T06:38:55;17.62;;;11.07;;
12181;SDS011;6154;51.550;12.138;2022-08-19T06:41:24;17.10;;;11.27;;
12181;SDS011;6154;51.550;12.138;2022-08-19T06:43:53;14.98;;;9.98;;
12181;SDS011;6154;51.550;12.138;2022-08-19T06:46:22;16.90;;;10.20;;
12181;SDS011;6154;51.550;12.138;2022-08-19T06:48:50;14.32;;;10.30;;
12181;SDS011;6154;51.550;12.138;2022-08-19T06:51:20;16.20;;;10.02;;
12181;SDS011;6154;51.550;12.138;2022-08-19T06:53:51;17.87;;;10.90;;
12181;SDS011;6154;51.550;12.138;2022-08-19T06:56:23;15.38;;;10.52;;
12181;SDS011;6154;51.550;12.138;2022-08-19T06:58:57;15.73;;;10.07;;
12181;SDS011;6154;51.550;12.138;2022-08-19T07:01:25;14.85;;;10.02;;
12181;SDS011;6154;51.550;12.138;2022-08-19T07:03:54;15.82;;;10.52;;
12181;SDS011;6154;51.550;12.138;2022-08-19T07:06:24;16.40;;;10.30;;
12181;SDS011;6154;51.550;12.138;2022-08-19T07:09:10;18.05;;;10.38;;
12181;SDS011;6154;51.550;12.138;2022-08-19T07:11:46;12.55;;;9.93;;
12181;SDS011;6154;51.550;12.138;2022-08-19T07:14:17;15.10;;;10.63;;
12181;SDS011;6154;51.550;12.138;2022-08-19T07:16:49;19.48;;;10.32;;
12181;SDS011;6154;51.550;12.138;2022-08-19T07:19:18;15.38;;;9.63;;
12181;SDS011;6154;51.550;12.138;2022-08-19T07:21:48;14.98;;;10.57;;
12181;SDS011;6154;51.550;12.138;2022-08-19T07:24:19;19.37;;;10.57;;
12181;SDS011;6154;51.550;12.138;2022-08-19T07:26:50;13.62;;;10.18;;
12181;SDS011;6154;51.550;12.138;2022-08-19T07:29:19;17.08;;;11.90;;
12181;SDS011;6154;51.550;12.138;2022-08-19T07:31:50;14.75;;;10.40;;
12181;SDS011;6154;51.550;12.138;2022-08-19T07:34:19;16.87;;;11.88;;
12181;SDS011;6154;51.550;12.138;2022-08-19T07:36:47;16.17;;;11.12;;
12181;SDS011;6154;51.550;12.138;2022-08-19T07:39:17;15.75;;;10.18;;
12181;SDS011;6154;51.550;12.138;2022-08-19T07:41:48;15.38;;;9.75;;
12181;SDS011;6154;51.550;12.138;2022-08-19T07:44:18;15.45;;;10.75;;
12181;SDS011;6154;51.550;12.138;2022-08-19T07:46:48;15.38;;;10.25;;
12181;SDS011;6154;51.550;12.138;2022-08-19T07:49:19;16.83;;;10.80;;
12181;SDS011;6154;51.550;12.138;2022-08-19T07:51:49;16.87;;;10.85;;
12181;SDS011;6154;51.550;12.138;2022-08-19T07:54:23;15.05;;;10.13;;
12181;SDS011;6154;51.550;12.138;2022-08-19T07:56:55;13.52;;;10.93;;
12181;SDS011;6154;51.550;12.138;2022-08-19T07:59:23;14.00;;;10.10;;
12181;SDS011;6154;51.550;12.138;2022-08-19T08:01:52;17.10;;;10.00;;
12181;SDS011;6154;51.550;12.138;2022-08-19T08:04:20;13.32;;;9.82;;
12181;SDS011;6154;51.550;12.138;2022-08-19T08:07:07;16.42;;;10.02;;
12181;SDS011;6154;51.550;12.138;2022-08-19T08:09:57;11.63;;;8.45;;
12181;SDS011;6154;51.550;12.138;2022-08-19T08:12:31;13.98;;;8.30;;
12181;SDS011;6154;51.550;12.138;2022-08-19T08:15:04;12.65;;;9.02;;
12181;SDS011;6154;51.550;12.138;2022-08-19T08:17:38;14.20;;;9.73;;
12181;SDS011;6154;51.550;12.138;2022-08-19T08:20:17;12.82;;;8.77;;
12181;SDS011;6154;51.550;12.138;2022-08-19T08:22:47;15.43;;;9.43;;
12181;SDS011;6154;51.550;12.138;2022-08-19T08:25:33;13.05;;;9.02;;
12181;SDS011;6154;51.550;12.138;2022-08-19T08:28:04;12.30;;;8.43;;
12181;SDS011;6154;51.550;12.138;2022-08-19T08:30:37;12.52;;;8.18;;
12181;SDS011;6154;51.550;12.138;2022-08-19T08:33:10;15.43;;;8.90;;
12181;SDS011;6154;51.550;12.138;2022-08-19T08:35:40;14.50;;;8.88;;
12181;SDS011;6154;51.550;12.138;2022-08-19T08:38:09;10.15;;;8.50;;
12181;SDS011;6154;51.550;12.138;2022-08-19T08:40:38;14.35;;;9.43;;
12181;SDS011;6154;51.550;12.138;2022-08-19T08:43:18;11.73;;;8.85;;
12181;SDS011;6154;51.550;12.138;2022-08-19T08:45:51;12.70;;;9.15;;
12181;SDS011;6154;51.550;12.138;2022-08-19T08:48:24;14.85;;;9.43;;
12181;SDS011;6154;51.550;12.138;2022-08-19T08:51:03;14.02;;;9.35;;
12181;SDS011;6154;51.550;12.138;2022-08-19T08:53:35;12.32;;;8.63;;
12181;SDS011;6154;51.550;12.138;2022-08-19T08:56:08;11.65;;;8.07;;
12181;SDS011;6154;51.550;12.138;2022-08-19T08:58:48;13.77;;;9.18;;
12181;SDS011;6154;51.550;12.138;2022-08-19T09:01:20;13.35;;;8.63;;
12181;SDS011;6154;51.550;12.138;2022-08-19T09:03:49;13.32;;;8.23;;
12181;SDS011;6154;51.550;12.138;2022-08-19T09:06:19;17.62;;;8.95;;
12181;SDS011;6154;51.550;12.138;2022-08-19T09:08:57;19.10;;;9.80;;
12181;SDS011;6154;51.550;12.138;2022-08-19T09:11:42;14.95;;;9.95;;
12181;SDS011;6154;51.550;12.138;2022-08-19T09:14:23;14.15;;;9.45;;
12181;SDS011;6154;51.550;12.138;2022-08-19T09:17:19;14.05;;;8.88;;
12181;SDS011;6154;51.550;12.138;2022-08-19T09:19:58;12.52;;;9.20;;
12181;SDS011;6154;51.550;12.138;2022-08-19T09:22:34;12.52;;;8.57;;
12181;SDS011;6154;51.550;12.138;2022-08-19T09:25:03;13.90;;;9.15;;
12181;SDS011;6154;51.550;12.138;2022-08-19T09:27:33;11.40;;;8.57;;
12181;SDS011;6154;51.550;12.138;2022-08-19T09:30:13;10.27;;;8.13;;
12181;SDS011;6154;51.550;12.138;2022-08-19T09:32:42;15.07;;;9.30;;
12181;SDS011;6154;51.550;12.138;2022-08-19T09:35:13;11.93;;;8.85;;
12181;SDS011;6154;51.550;12.138;2022-08-19T09:37:42;11.77;;;8.32;;
12181;SDS011;6154;51.550;12.138;2022-08-19T09:40:11;11.43;;;8.43;;
12181;SDS011;6154;51.550;12.138;2022-08-19T09:42:41;12.13;;;8.20;;
12181;SDS011;6154;51.550;12.138;2022-08-19T09:45:18;15.45;;;8.88;;
12181;SDS011;6154;51.550;12.138;2022-08-19T09:47:49;13.57;;;8.70;;
12181;SDS011;6154;51.550;12.138;2022-08-19T09:50:20;11.55;;;7.53;;
12181;SDS011;6154;51.550;12.138;2022-08-19T09:52:50;20.83;;;8.90;;
12181;SDS011;6154;51.550;12.138;2022-08-19T09:55:24;15.05;;;8.60;;
12181;SDS011;6154;51.550;12.138;2022-08-19T09:58:01;12.35;;;7.65;;
12181;SDS011;6154;51.550;12.138;2022-08-19T10:00:31;10.73;;;7.22;;
12181;SDS011;6154;51.550;12.138;2022-08-19T10:03:00;10.10;;;6.68;;
12181;SDS011;6154;51.550;12.138;2022-08-19T10:05:29;9.98;;;5.90;;
12181;SDS011;6154;51.550;12.138;2022-08-19T10:08:16;8.60;;;5.72;;
12181;SDS011;6154;51.550;12.138;2022-08-19T10:10:52;11.98;;;6.53;;
12181;SDS011;6154;51.550;12.138;2022-08-19T10:13:23;7.70;;;6.15;;
12181;SDS011;6154;51.550;12.138;2022-08-19T10:15:54;9.90;;;6.03;;
12181;SDS011;6154;51.550;12.138;2022-08-19T10:18:24;9.85;;;5.85;;
12181;SDS011;6154;51.550;12.138;2022-08-19T10:20:52;9.88;;;6.30;;
12181;SDS011;6154;51.550;12.138;2022-08-19T10:23:35;8.77;;;5.93;;
12181;SDS011;6154;51.550;12.138;2022-08-19T10:26:04;10.02;;;5.62;;
12181;SDS011;6154;51.550;12.138;2022-08-19T10:28:33;8.07;;;5.82;;
12181;SDS011;6154;51.550;12.138;2022-08-19T10:31:06;8.07;;;5.40;;
12181;SDS011;6154;51.550;12.138;2022-08-19T10:33:36;9.45;;;6.47;;
12181;SDS011;6154;51.550;12.138;2022-08-19T10:36:21;10.75;;;5.70;;
12181;SDS011;6154;51.550;12.138;2022-08-19T10:38:51;6.93;;;5.32;;
12181;SDS011;6154;51.550;12.138;2022-08-19T10:41:25;7.43;;;5.10;;
12181;SDS011;6154;51.550;12.138;2022-08-19T10:43:55;8.68;;;5.18;;
12181;SDS011;6154;51.550;12.138;2022-08-19T10:46:32;7.85;;;4.65;;
12181;SDS011;6154;51.550;12.138;2022-08-19T10:49:03;7.00;;;5.10;;
12181;SDS011;6154;51.550;12.138;2022-08-19T10:51:32;8.30;;;5.18;;
12181;SDS011;6154;51.550;12.138;2022-08-19T10:54:18;8.50;;;5.28;;
12181;SDS011;6154;51.550;12.138;2022-08-19T10:56:59;7.20;;;5.15;;
12181;SDS011;6154;51.550;12.138;2022-08-19T10:59:27;6.18;;;5.07;;
12181;SDS011;6154;51.550;12.138;2022-08-19T11:02:03;8.50;;;5.18;;
12181;SDS011;6154;51.550;12.138;2022-08-19T11:04:33;20.35;;;6.40;;
12181;SDS011;6154;51.550;12.138;2022-08-19T11:07:02;11.68;;;5.72;;
12181;SDS011;6154;51.550;12.138;2022-08-19T11:09:35;7.87;;;5.50;;
12181;SDS011;6154;51.550;12.138;2022-08-19T11:12:06;6.57;;;5.15;;
12181;SDS011;6154;51.550;12.138;2022-08-19T11:14:37;7.07;;;4.60;;
12181;SDS011;6154;51.550;12.138;2022-08-19T11:17:06;7.25;;;5.32;;
12181;SDS011;6154;51.550;12.138;2022-08-19T11:19:34;8.68;;;4.85;;
12181;SDS011;6154;51.550;12.138;2022-08-19T11:22:03;7.22;;;4.93;;
12181;SDS011;6154;51.550;12.138;2022-08-19T11:24:31;7.32;;;4.80;;
12181;SDS011;6154;51.550;12.138;2022-08-19T11:27:03;7.30;;;5.28;;
12181;SDS011;6154;51.550;12.138;2022-08-19T11:29:33;6.25;;;4.70;;
12181;SDS011;6154;51.550;12.138;2022-08-19T11:32:03;6.22;;;4.22;;
12181;SDS011;6154;51.550;12.138;2022-08-19T11:34:34;6.95;;;4.93;;
12181;SDS011;6154;51.550;12.138;2022-08-19T11:37:03;6.75;;;4.90;;
12181;SDS011;6154;51.550;12.138;2022-08-19T11:39:33;7.12;;;4.90;;
12181;SDS011;6154;51.550;12.138;2022-08-19T11:42:04;7.78;;;4.62;;
12181;SDS011;6154;51.550;12.138;2022-08-19T11:44:53;8.32;;;5.22;;
12181;SDS011;6154;51.550;12.138;2022-08-19T11:47:22;5.62;;;4.30;;
12181;SDS011;6154;51.550;12.138;2022-08-19T11:49:51;9.18;;;4.35;;
12181;SDS011;6154;51.550;12.138;2022-08-19T11:52:20;6.43;;;4.82;;
12181;SDS011;6154;51.550;12.138;2022-08-19T11:54:48;4.90;;;4.20;;
12181;SDS011;6154;51.550;12.138;2022-08-19T11:57:16;6.40;;;4.45;;
12181;SDS011;6154;51.550;12.138;2022-08-19T11:59:47;5.75;;;4.32;;
12181;SDS011;6154;51.550;12.138;2022-08-19T12:02:16;9.05;;;5.25;;
12181;SDS011;6154;51.550;12.138;2022-08-19T12:04:45;8.52;;;4.45;;
12181;SDS011;6154;51.550;12.138;2022-08-19T12:07:15;6.80;;;4.70;;
12181;SDS011;6154;51.550;12.138;2022-08-19T12:09:43;6.90;;;4.18;;
12181;SDS011;6154;51.550;12.138;2022-08-19T12:12:14;6.18;;;4.75;;
12181;SDS011;6154;51.550;12.138;2022-08-19T12:14:42;7.85;;;4.75;;
12181;SDS011;6154;51.550;12.138;2022-08-19T12:17:11;5.18;;;4.05;;
12181;SDS011;6154;51.550;12.138;2022-08-19T12:19:40;5.47;;;4.55;;
12181;SDS011;6154;51.550;12.138;2022-08-19T12:22:08;7.50;;;4.80;;
12181;SDS011;6154;51.550;12.138;2022-08-19T12:24:37;9.63;;;5.00;;
12181;SDS011;6154;51.550;12.138;2022-08-19T12:27:05;7.10;;;4.30;;
12181;SDS011;6154;51.550;12.138;2022-08-19T12:29:38;5.20;;;3.78;;
12181;SDS011;6154;51.550;12.138;2022-08-19T12:32:08;6.65;;;4.53;;
12181;SDS011;6154;51.550;12.138;2022-08-19T12:34:38;5.72;;;3.97;;
12181;SDS011;6154;51.550;12.138;2022-08-19T12:37:06;6.20;;;4.00;;
12181;SDS011;6154;51.550;12.138;2022-08-19T12:39:37;5.68;;;3.87;;
12181;SDS011;6154;51.550;12.138;2022-08-19T12:42:07;5.55;;;4.03;;
12181;SDS011;6154;51.550;12.138;2022-08-19T12:44:36;4.68;;;3.47;;
12181;SDS011;6154;51.550;12.138;2022-08-19T12:47:08;5.82;;;4.03;;
12181;SDS011;6154;51.550;12.138;2022-08-19T12:49:38;5.35;;;3.80;;
12181;SDS011;6154;51.550;12.138;2022-08-19T12:52:21;5.60;;;4.12;;
12181;SDS011;6154;51.550;12.138;2022-08-19T12:54:53;4.53;;;3.53;;
12181;SDS011;6154;51.550;12.138;2022-08-19T12:57:22;4.20;;;3.25;;
12181;SDS011;6154;51.550;12.138;2022-08-19T12:59:59;4.32;;;3.60;;
12181;SDS011;6154;51.550;12.138;2022-08-19T13:02:31;7.45;;;4.20;;
12181;SDS011;6154;51.550;12.138;2022-08-19T13:05:06;5.70;;;4.10;;
12181;SDS011;6154;51.550;12.138;2022-08-19T13:07:37;6.18;;;3.92;;
12181;SDS011;6154;51.550;12.138;2022-08-19T13:10:08;4.75;;;3.47;;
12181;SDS011;6154;51.550;12.138;2022-08-19T13:12:38;4.35;;;3.37;;
12181;SDS011;6154;51.550;12.138;2022-08-19T13:15:08;4.70;;;3.20;;
12181;SDS011;6154;51.550;12.138;2022-08-19T13:17:38;3.80;;;3.03;;
12181;SDS011;6154;51.550;12.138;2022-08-19T13:20:08;10.55;;;3.45;;
12181;SDS011;6154;51.550;12.138;2022-08-19T13:22:38;5.20;;;3.03;;
12181;SDS011;6154;51.550;12.138;2022-08-19T13:25:08;4.55;;;2.75;;
12181;SDS011;6154;51.550;12.138;2022-08-19T13:27:37;4.97;;;3.05;;
12181;SDS011;6154;51.550;12.138;2022-08-19T13:30:06;4.03;;;3.45;;
12181;SDS011;6154;51.550;12.138;2022-08-19T13:32:55;4.78;;;3.05;;
12181;SDS011;6154;51.550;12.138;2022-08-19T13:35:38;3.90;;;3.35;;
12181;SDS011;6154;51.550;12.138;2022-08-19T13:38:08;4.18;;;3.15;;
12181;SDS011;6154;51.550;12.138;2022-08-19T13:40:39;4.12;;;2.72;;
12181;SDS011;6154;51.550;12.138;2022-08-19T13:43:08;5.20;;;3.85;;
12181;SDS011;6154;51.550;12.138;2022-08-19T13:45:48;7.68;;;4.28;;
12181;SDS011;6154;51.550;12.138;2022-08-19T13:48:19;6.90;;;4.25;;
12181;SDS011;6154;51.550;12.138;2022-08-19T13:50:47;7.30;;;4.60;;
12181;SDS011;6154;51.550;12.138;2022-08-19T13:53:15;5.65;;;4.80;;
12181;SDS011;6154;51.550;12.138;2022-08-19T13:55:46;5.25;;;3.80;;
12181;SDS011;6154;51.550;12.138;2022-08-19T13:58:14;9.05;;;4.68;;
12181;SDS011;6154;51.550;12.138;2022-08-19T14:00:43;6.28;;;4.10;;
12181;SDS011;6154;51.550;12.138;2022-08-19T14:03:12;4.82;;;3.20;;
12181;SDS011;6154;51.550;12.138;2022-08-19T14:05:41;4.40;;;3.42;;
12181;SDS011;6154;51.550;12.138;2022-08-19T14:08:09;8.65;;;3.20;;
12181;SDS011;6154;51.550;12.138;2022-08-19T14:10:38;4.07;;;3.45;;
12181;SDS011;6154;51.550;12.138;2022-08-19T14:13:13;3.97;;;3.40;;
12181;SDS011;6154;51.550;12.138;2022-08-19T14:15:44;8.20;;;4.18;;
12181;SDS011;6154;51.550;12.138;2022-08-19T14:18:13;5.85;;;3.67;;
12181;SDS011;6154;51.550;12.138;2022-08-19T14:20:42;3.87;;;3.00;;
12181;SDS011;6154;51.550;12.138;2022-08-19T14:23:11;6.25;;;3.78;;
12181;SDS011;6154;51.550;12.138;2022-08-19T14:25:40;5.57;;;3.50;;
12181;SDS011;6154;51.550;12.138;2022-08-19T14:28:08;8.93;;;6.15;;
12181;SDS011;6154;51.550;12.138;2022-08-19T14:30:37;5.05;;;3.67;;
12181;SDS011;6154;51.550;12.138;2022-08-19T14:33:06;5.95;;;3.65;;
12181;SDS011;6154;51.550;12.138;2022-08-19T14:35:35;6.43;;;3.92;;
12181;SDS011;6154;51.550;12.138;2022-08-19T14:38:04;20.80;;;10.50;;
12181;SDS011;6154;51.550;12.138;2022-08-19T14:40:33;8.85;;;5.20;;
12181;SDS011;6154;51.550;12.138;2022-08-19T14:43:02;5.35;;;3.72;;
12181;SDS011;6154;51.550;12.138;2022-08-19T14:45:32;5.43;;;3.50;;
12181;SDS011;6154;51.550;12.138;2022-08-19T14:48:04;15.32;;;6.25;;
12181;SDS011;6154;51.550;12.138;2022-08-19T14:50:43;7.32;;;3.90;;
12181;SDS011;6154;51.550;12.138;2022-08-19T14:53:11;5.85;;;3.92;;
12181;SDS011;6154;51.550;12.138;2022-08-19T14:55:40;5.15;;;3.20;;